Time;durP1;ratioP1;P1;durP2;ratioP2;P2;SDS_P1;SDS_P2;PMS_P1;PMS_P2;Temp;Humidity;BMP_temperature;BMP_pressure;BME280_temperature;BME280_humidity;BME280_pressure;Samples;Min_cycle;Max_cycle;Signal;HPM_P1;HPM_P2
2022/04/21 00:00:18;;;;;;;;;;;;;;;;;;5113320;28;19912;-53
2022/04/21 00:02:44;;;;;;;;;;;;;;;;;;5113468;28;20022;-54
2022/04/21 00:05:11;;;;;;;;;;;;;;;;;;5112751;28;19930;-53
2022/04/21 00:07:37;;;;;;;;;;;;;;;;;;5113103;28;19912;-54
2022/04/21 00:10:04;;;;;;;;;;;;;;;;;;5113131;28;19915;-57
2022/04/21 00:12:30;;;;;;;;;;;;;;;;;;5100640;28;20351;-52
2022/04/21 00:14:57;;;;;;;;;;;;;;;;;;5092891;28;19908;-55
2022/04/21 00:17:24;;;;;;;;;;;;;;;;;;5092832;28;20287;-61
2022/04/21 00:19:50;;;;;;;;;;;;;;;;;;5092968;28;19916;-58
2022/04/21 00:25:01;;;;;;;;;;;;;;;;;;5092713;28;19927;-43
2022/04/21 00:27:28;;;;;;;;;;;;;;;;;;5092901;28;19919;-46
2022/04/21 00:29:54;;;;;;;;;;;;;;;;;;5092739;28;19914;-55
2022/04/21 00:32:21;;;;;;;;;;;;;;;;;;5096230;28;19916;-53
2022/04/21 00:34:47;;;;;;;;;;;;;;;;;;5096829;28;19912;-57
2022/04/21 00:37:14;;;;;;;;;;;;;;;;;;5099826;28;20230;-53
2022/04/21 00:39:40;;;;;;;;;;;;;;;;;;5117152;27;19914;-51
2022/04/21 00:42:07;;;;;;;;;;;;;;;;;;5117220;28;19918;-61
2022/04/21 00:44:34;;;;;;;;;;;;;;;;;;5115996;28;19916;-57
2022/04/21 00:47:00;;;;;;;;;;;;;;;;;;5116554;28;20018;-58
2022/04/21 00:49:27;;;;;;;;;;;;;;;;;;5116277;28;20326;-63
2022/04/21 00:51:53;;;;;;;;;;;;;;;;;;5116813;28;20028;-48
2022/04/21 00:54:20;;;;;;;;;;;;;;;;;;5116842;28;19908;-53
2022/04/21 00:56:47;;;;;;;;;;;;;;;;;;5116030;28;20455;-53
2022/04/21 00:59:13;;;;;;;;;;;;;;;;;;5116591;28;19954;-55
2022/04/21 01:04:27;;;;;;;;;;;;;;;;;;5116076;28;19991;-50
2022/04/21 01:06:54;;;;;;;;;;;;;;;;;;5111381;28;19908;-51
2022/04/21 01:09:20;;;;;;;;;;;;;;;;;;5095641;28;19983;-54
2022/04/21 01:11:47;;;;;;;;;;;;;;;;;;5094568;28;19962;-55
2022/04/21 01:14:13;;;;;;;;;;;;;;;;;;5115162;28;20420;-60
2022/04/21 01:16:40;;;;;;;;;;;;;;;;;;5115826;28;19912;-55
2022/04/21 01:19:06;;;;;;;;;;;;;;;;;;5115250;28;20273;-52
2022/04/21 01:21:33;;;;;;;;;;;;;;;;;;5098839;27;19908;-56
2022/04/21 01:23:59;;;;;;;;;;;;;;;;;;5095558;28;19916;-52
2022/04/21 01:26:26;;;;;;;;;;;;;;;;;;5094758;28;19954;-56
2022/04/21 01:28:52;;;;;;;;;;;;;;;;;;5095468;28;19915;-50
2022/04/21 01:31:19;;;;;;;;;;;;;;;;;;5098771;28;19915;-53
2022/04/21 01:33:45;;;;;;;;;;;;;;;;;;5116174;28;19942;-51
2022/04/21 01:36:12;;;;;;;;;;;;;;;;;;5115954;28;20018;-54
2022/04/21 01:41:43;;;;;;;;;;;;;;;;;;5051579;28;20035;-53
2022/04/21 01:44:09;;;;;;;;;;;;;;;;;;5035984;28;19923;-50
2022/04/21 01:46:36;;;;;;;;;;;;;;;;;;5082380;28;20342;-53
2022/04/21 01:49:02;;;;;;;;;;;;;;;;;;5115051;28;19960;-53
2022/04/21 01:51:29;;;;;;;;;;;;;;;;;;5115048;28;19922;-50
2022/04/21 01:53:56;;;;;;;;;;;;;;;;;;5115027;28;19908;-49
2022/04/21 01:56:23;;;;;;;;;;;;;;;;;;5114888;27;19915;-53
2022/04/21 01:58:50;;;;;;;;;;;;;;;;;;5115076;28;19996;-51
2022/04/21 02:01:17;;;;;;;;;;;;;;;;;;5114198;28;19908;-55
2022/04/21 02:03:43;;;;;;;;;;;;;;;;;;5114939;28;19915;-53
2022/04/21 02:06:10;;;;;;;;;;;;;;;;;;5115230;28;19924;-51
2022/04/21 02:08:37;;;;;;;;;;;;;;;;;;5114671;28;19920;-53
2022/04/21 02:11:04;;;;;;;;;;;;;;;;;;5114987;28;19915;-49
2022/04/21 02:13:30;;;;;;;;;;;;;;;;;;5114009;28;19984;-51
2022/04/21 02:15:57;;;;;;;;;;;;;;;;;;5114756;28;19912;-50
2022/04/21 02:18:23;;;;;;;;;;;;;;;;;;5115143;27;19908;-57
2022/04/21 02:20:50;;;;;;;;;;;;;;;;;;5115072;28;20319;-57
2022/04/21 02:23:16;;;;;;;;;;;;;;;;;;5094132;28;19908;-55
2022/04/21 02:25:43;;;;;;;;;;;;;;;;;;5095063;28;19908;-49
2022/04/21 02:28:09;;;;;;;;;;;;;;;;;;5106476;28;20419;-56
2022/04/21 02:30:36;;;;;;;;;;;;;;;;;;5115012;28;19961;-57
2022/04/21 02:33:02;;;;;;;;;;;;;;;;;;5114936;27;19908;-52
2022/04/21 02:35:29;;;;;;;;;;;;;;;;;;5114453;28;19912;-52
2022/04/21 02:37:55;;;;;;;;;;;;;;;;;;5114500;28;19907;-54
2022/04/21 02:40:22;;;;;;;;;;;;;;;;;;5114194;28;19948;-51
2022/04/21 02:42:48;;;;;;;;;;;;;;;;;;5114036;28;19907;-49
2022/04/21 02:45:15;;;;;;;;;;;;;;;;;;5114020;27;19916;-54
2022/04/21 02:47:41;;;;;;;;;;;;;;;;;;5113791;28;19918;-53
2022/04/21 02:50:08;;;;;;;;;;;;;;;;;;5114354;28;20266;-48
2022/04/21 02:52:34;;;;;;;;;;;;;;;;;;5114292;27;19908;-51
2022/04/21 02:57:45;;;;;;;;;;;;;;;;;;5113650;28;19933;-50
2022/04/21 03:00:12;;;;;;;;;;;;;;;;;;5114133;28;20381;-50
2022/04/21 03:02:38;;;;;;;;;;;;;;;;;;5096160;28;19914;-51
2022/04/21 03:05:05;;;;;;;;;;;;;;;;;;5093216;28;19974;-52
2022/04/21 03:07:31;;;;;;;;;;;;;;;;;;5093684;28;19908;-48
2022/04/21 03:09:58;;;;;;;;;;;;;;;;;;5093515;28;20381;-50
2022/04/21 03:12:26;;;;;;;;;;;;;;;;;;5092110;28;19915;-49
2022/04/21 03:14:52;;;;;;;;;;;;;;;;;;5093211;28;19934;-50
2022/04/21 03:17:19;;;;;;;;;;;;;;;;;;5092791;28;19908;-44
2022/04/21 03:19:45;;;;;;;;;;;;;;;;;;5092395;28;19974;-49
2022/04/21 03:24:58;;;;;;;;;;;;;;;;;;5110720;28;19922;-57
2022/04/21 03:27:26;;;;;;;;;;;;;;;;;;5113115;28;20381;-48
2022/04/21 03:29:53;;;;;;;;;;;;;;;;;;5113483;28;19908;-54
2022/04/21 03:32:19;;;;;;;;;;;;;;;;;;5112285;27;19911;-50
2022/04/21 03:34:46;;;;;;;;;;;;;;;;;;5113235;28;19907;-47
2022/04/21 03:37:13;;;;;;;;;;;;;;;;;;5112545;28;19908;-51
2022/04/21 03:39:39;;;;;;;;;;;;;;;;;;5113655;28;19908;-50
2022/04/21 03:42:06;;;;;;;;;;;;;;;;;;5113420;28;20385;-56
2022/04/21 03:44:32;;;;;;;;;;;;;;;;;;5112982;28;19920;-50
2022/04/21 03:46:59;;;;;;;;;;;;;;;;;;5112976;28;19907;-50
2022/04/21 03:49:25;;;;;;;;;;;;;;;;;;5112946;28;20011;-51
2022/04/21 03:51:52;;;;;;;;;;;;;;;;;;5112811;28;19953;-54
2022/04/21 03:54:19;;;;;;;;;;;;;;;;;;5113073;28;19966;-51
2022/04/21 03:56:45;;;;;;;;;;;;;;;;;;5112360;28;19912;-57
2022/04/21 03:59:12;;;;;;;;;;;;;;;;;;5112771;28;19907;-48
2022/04/21 04:01:39;;;;;;;;;;;;;;;;;;5112915;28;19904;-54
2022/04/21 04:04:06;;;;;;;;;;;;;;;;;;5112614;28;19916;-53
2022/04/21 04:12:01;;;;;;;;;;;;;;;;;;5112861;28;19933;-50
2022/04/21 04:14:29;;;;;;;;;;;;;;;;;;5112611;28;20362;-56
2022/04/21 04:16:55;;;;;;;;;;;;;;;;;;5112759;28;19915;-51
2022/04/21 04:19:21;;;;;;;;;;;;;;;;;;5112939;28;20006;-54
2022/04/21 04:21:48;;;;;;;;;;;;;;;;;;5111753;28;19908;-55
2022/04/21 04:24:14;;;;;;;;;;;;;;;;;;5111793;28;19915;-50
2022/04/21 04:26:41;;;;;;;;;;;;;;;;;;5111993;28;19957;-55
2022/04/21 04:29:07;;;;;;;;;;;;;;;;;;5111405;28;20013;-53
2022/04/21 04:31:34;;;;;;;;;;;;;;;;;;5112561;28;19914;-51
2022/04/21 04:34:01;;;;;;;;;;;;;;;;;;5112313;28;19957;-56
2022/04/21 04:36:28;;;;;;;;;;;;;;;;;;5111874;28;19930;-50
2022/04/21 04:38:54;;;;;;;;;;;;;;;;;;5112452;28;20272;-50
2022/04/21 04:44:05;;;;;;;;;;;;;;;;;;5112454;28;19931;-51
2022/04/21 04:46:38;;;;;;;;;;;;;;;;;;5112556;28;19912;-53
2022/04/21 04:49:05;;;;;;;;;;;;;;;;;;5112250;28;20002;-56
2022/04/21 04:51:32;;;;;;;;;;;;;;;;;;5112019;28;19986;-56
2022/04/21 04:53:58;;;;;;;;;;;;;;;;;;5112965;28;20318;-54
2022/04/21 04:56:27;;;;;;;;;;;;;;;;;;5112502;28;19908;-50
2022/04/21 04:58:53;;;;;;;;;;;;;;;;;;5112572;28;20243;-50
2022/04/21 05:01:20;;;;;;;;;;;;;;;;;;5112511;28;19908;-50
2022/04/21 05:03:46;;;;;;;;;;;;;;;;;;5112804;28;19915;-54
2022/04/21 05:06:13;;;;;;;;;;;;;;;;;;5111664;28;19966;-54
2022/04/21 05:08:39;;;;;;;;;;;;;;;;;;5111944;28;19988;-57
2022/04/21 05:11:06;;;;;;;;;;;;;;;;;;5111539;28;19916;-50
2022/04/21 05:13:32;;;;;;;;;;;;;;;;;;5112052;28;19908;-54
2022/04/21 05:15:59;;;;;;;;;;;;;;;;;;5112098;28;19908;-55
2022/04/21 05:18:25;;;;;;;;;;;;;;;;;;5115583;28;20247;-52
2022/04/21 05:20:52;;;;;;;;;;;;;;;;;;5115646;28;19907;-54
2022/04/21 05:23:18;;;;;;;;;;;;;;;;;;5115641;28;19908;-57
2022/04/21 05:25:45;;;;;;;;;;;;;;;;;;5115829;28;20278;-54
2022/04/21 05:28:11;;;;;;;;;;;;;;;;;;5116015;28;19915;-51
2022/04/21 05:30:58;;;;;;;;;;;;;;;;;;5103536;28;19912;-54
2022/04/21 05:33:24;;;;;;;;;;;;;;;;;;5095505;28;20278;-53
2022/04/21 05:35:51;;;;;;;;;;;;;;;;;;5095556;28;20322;-56
2022/04/21 05:38:19;;;;;;;;;;;;;;;;;;5095400;28;20004;-53
2022/04/21 05:40:45;;;;;;;;;;;;;;;;;;5095402;28;19908;-57
2022/04/21 05:43:14;;;;;;;;;;;;;;;;;;5093632;28;19912;-55
2022/04/21 05:45:42;;;;;;;;;;;;;;;;;;5095259;28;19924;-54
2022/04/21 05:48:08;;;;;;;;;;;;;;;;;;5095257;28;19935;-55
2022/04/21 05:50:34;;;;;;;;;;;;;;;;;;5095184;28;20334;-54
2022/04/21 05:53:01;;;;;;;;;;;;;;;;;;5095197;28;19915;-52
2022/04/21 05:55:28;;;;;;;;;;;;;;;;;;5094875;28;20007;-52
2022/04/21 05:57:55;;;;;;;;;;;;;;;;;;5106265;28;19966;-55
2022/04/21 06:00:21;;;;;;;;;;;;;;;;;;5115712;27;19907;-54
2022/04/21 06:02:48;;;;;;;;;;;;;;;;;;5115544;28;19962;-56
2022/04/21 06:05:14;;;;;;;;;;;;;;;;;;5114528;28;20409;-55
2022/04/21 06:07:41;;;;;;;;;;;;;;;;;;5114844;28;19948;-54
2022/04/21 06:10:07;;;;;;;;;;;;;;;;;;5114475;28;19912;-54
2022/04/21 06:12:36;;;;;;;;;;;;;;;;;;5114288;28;20250;-49
2022/04/21 06:15:02;;;;;;;;;;;;;;;;;;5114599;27;20307;-45
2022/04/21 06:17:29;;;;;;;;;;;;;;;;;;5114441;28;19912;-50
2022/04/21 06:19:56;;;;;;;;;;;;;;;;;;5114680;28;19908;-56
2022/04/21 06:22:23;;;;;;;;;;;;;;;;;;5114261;28;19998;-54
2022/04/21 06:24:49;;;;;;;;;;;;;;;;;;5114303;28;19920;-52
2022/04/21 06:27:16;;;;;;;;;;;;;;;;;;5113757;28;19915;-53
2022/04/21 06:29:44;;;;;;;;;;;;;;;;;;5114501;28;20010;-53
2022/04/21 06:32:10;;;;;;;;;;;;;;;;;;5114006;28;20331;-54
2022/04/21 06:34:37;;;;;;;;;;;;;;;;;;5114575;28;19919;-50
2022/04/21 06:37:03;;;;;;;;;;;;;;;;;;5113443;28;19916;-52
2022/04/21 06:39:30;;;;;;;;;;;;;;;;;;5113923;28;19907;-52
2022/04/21 06:41:56;;;;;;;;;;;;;;;;;;5114643;28;19907;-54
2022/04/21 06:50:01;;;;;;;;;;;;;;;;;;5090020;28;19976;-53
2022/04/21 06:52:28;;;;;;;;;;;;;;;;;;5112261;28;19955;-50
2022/04/21 06:57:40;;;;;;;;;;;;;;;;;;5113588;28;20361;-52
2022/04/21 07:00:06;;;;;;;;;;;;;;;;;;5113773;28;19915;-49
2022/04/21 07:02:37;;;;;;;;;;;;;;;;;;5112994;28;20273;-53
2022/04/21 07:05:03;;;;;;;;;;;;;;;;;;5112839;28;19920;-47
2022/04/21 07:07:30;;;;;;;;;;;;;;;;;;5113453;28;19914;-48
2022/04/21 07:10:02;;;;;;;;;;;;;;;;;;5112408;28;19994;-52
2022/04/21 07:12:29;;;;;;;;;;;;;;;;;;5112564;28;19923;-51
2022/04/21 07:14:56;;;;;;;;;;;;;;;;;;5113321;28;19983;-51
2022/04/21 07:17:22;;;;;;;;;;;;;;;;;;5113077;28;19903;-52
2022/04/21 07:19:49;;;;;;;;;;;;;;;;;;5112501;28;19995;-56
2022/04/21 07:22:15;;;;;;;;;;;;;;;;;;5113579;28;20315;-55
2022/04/21 07:24:41;;;;;;;;;;;;;;;;;;5113687;28;19916;-53
2022/04/21 07:27:08;;;;;;;;;;;;;;;;;;5113136;28;19947;-56
2022/04/21 07:29:34;;;;;;;;;;;;;;;;;;5113403;28;19908;-52
2022/04/21 07:32:01;;;;;;;;;;;;;;;;;;5113272;28;19990;-53
2022/04/21 07:34:27;;;;;;;;;;;;;;;;;;5113465;28;19912;-55
2022/04/21 07:36:54;;;;;;;;;;;;;;;;;;5113340;28;19957;-60
2022/04/21 07:39:20;;;;;;;;;;;;;;;;;;5112587;28;19914;-56
2022/04/21 07:41:47;;;;;;;;;;;;;;;;;;5113451;28;19908;-55
2022/04/21 07:44:13;;;;;;;;;;;;;;;;;;5113375;28;19915;-50
2022/04/21 07:46:40;;;;;;;;;;;;;;;;;;5113470;28;19908;-56
2022/04/21 07:51:51;;;;;;;;;;;;;;;;;;5113102;28;19915;-52
2022/04/21 07:54:17;;;;;;;;;;;;;;;;;;5112202;28;19988;-51
2022/04/21 07:56:44;;;;;;;;;;;;;;;;;;5113110;28;20254;-54
2022/04/21 07:59:10;;;;;;;;;;;;;;;;;;5112290;28;19904;-54
2022/04/21 08:01:37;;;;;;;;;;;;;;;;;;5111834;28;20034;-51
2022/04/21 08:04:03;;;;;;;;;;;;;;;;;;5112950;28;19964;-53
2022/04/21 08:06:30;;;;;;;;;;;;;;;;;;5112959;28;20320;-55
2022/04/21 08:08:56;;;;;;;;;;;;;;;;;;5112497;28;19974;-57
2022/04/21 08:11:23;;;;;;;;;;;;;;;;;;5112274;28;19973;-47
2022/04/21 08:13:49;;;;;;;;;;;;;;;;;;5112988;28;19904;-52
2022/04/21 08:16:16;;;;;;;;;;;;;;;;;;5113268;28;20243;-50
2022/04/21 08:18:42;;;;;;;;;;;;;;;;;;5111836;28;20251;-53
2022/04/21 08:21:09;;;;;;;;;;;;;;;;;;5113014;28;19915;-49
2022/04/21 08:23:35;;;;;;;;;;;;;;;;;;5112698;28;19908;-52
2022/04/21 08:34:15;;;;;;;;;;;;;;;;;;5112820;28;20024;-56
2022/04/21 08:36:42;;;;;;;;;;;;;;;;;;5112320;28;20323;-56
2022/04/21 08:39:08;;;;;;;;;;;;;;;;;;5112926;28;19908;-54
2022/04/21 08:41:35;;;;;;;;;;;;;;;;;;5112749;28;19994;-47
2022/04/21 08:44:03;;;;;;;;;;;;;;;;;;5112908;28;20018;-53
2022/04/21 08:46:30;;;;;;;;;;;;;;;;;;5113215;28;20270;-47
2022/04/21 08:48:56;;;;;;;;;;;;;;;;;;5112033;28;19976;-54
2022/04/21 08:51:23;;;;;;;;;;;;;;;;;;5111393;28;20387;-55
2022/04/21 08:53:49;;;;;;;;;;;;;;;;;;5116733;28;19908;-51
2022/04/21 08:56:16;;;;;;;;;;;;;;;;;;5116478;28;19914;-45
2022/04/21 08:58:42;;;;;;;;;;;;;;;;;;5116397;28;19982;-47
2022/04/21 09:01:09;;;;;;;;;;;;;;;;;;5115628;27;20278;-49
2022/04/21 09:03:36;;;;;;;;;;;;;;;;;;5115985;28;19956;-46
2022/04/21 09:06:03;;;;;;;;;;;;;;;;;;5115619;28;19949;-49
2022/04/21 09:08:31;;;;;;;;;;;;;;;;;;5114947;28;19934;-47
2022/04/21 09:10:58;;;;;;;;;;;;;;;;;;5115640;28;20381;-54
2022/04/21 09:13:24;;;;;;;;;;;;;;;;;;5102397;28;20278;-49
2022/04/21 09:15:51;;;;;;;;;;;;;;;;;;5095569;28;19908;-47
2022/04/21 09:18:18;;;;;;;;;;;;;;;;;;5095396;28;19908;-49
2022/04/21 09:20:45;;;;;;;;;;;;;;;;;;5095567;28;20359;-48
2022/04/21 09:23:11;;;;;;;;;;;;;;;;;;5095449;28;19904;-51
2022/04/21 09:25:38;;;;;;;;;;;;;;;;;;5095309;28;19920;-50
2022/04/21 09:28:04;;;;;;;;;;;;;;;;;;5111202;28;19980;-45
2022/04/21 09:30:31;;;;;;;;;;;;;;;;;;5115802;28;19908;-51
2022/04/21 09:32:57;;;;;;;;;;;;;;;;;;5116109;28;19912;-48
2022/04/21 09:35:24;;;;;;;;;;;;;;;;;;5115257;28;20281;-49
2022/04/21 09:37:50;;;;;;;;;;;;;;;;;;5115275;28;19955;-51
2022/04/21 09:40:17;;;;;;;;;;;;;;;;;;5114969;28;19908;-50
2022/04/21 09:42:43;;;;;;;;;;;;;;;;;;5115335;28;19912;-50
2022/04/21 09:47:54;;;;;;;;;;;;;;;;;;5115471;28;20250;-47
2022/04/21 09:50:21;;;;;;;;;;;;;;;;;;5115183;28;19958;-45
2022/04/21 09:52:47;;;;;;;;;;;;;;;;;;5115521;28;20358;-50
2022/04/21 09:55:14;;;;;;;;;;;;;;;;;;5115045;28;19912;-46
2022/04/21 09:57:40;;;;;;;;;;;;;;;;;;5115698;28;19908;-49
2022/04/21 10:00:07;;;;;;;;;;;;;;;;;;5115952;28;19919;-50
2022/04/21 10:02:33;;;;;;;;;;;;;;;;;;5115505;28;20026;-51
2022/04/21 10:05:00;;;;;;;;;;;;;;;;;;5114984;28;19927;-53
2022/04/21 10:07:26;;;;;;;;;;;;;;;;;;5114766;28;20302;-51
2022/04/21 10:09:54;;;;;;;;;;;;;;;;;;5115206;28;19907;-45
2022/04/21 10:12:21;;;;;;;;;;;;;;;;;;5104934;28;20370;-49
2022/04/21 10:14:47;;;;;;;;;;;;;;;;;;5094744;28;19934;-48
2022/04/21 10:17:14;;;;;;;;;;;;;;;;;;5094450;28;19994;-54
2022/04/21 10:19:40;;;;;;;;;;;;;;;;;;5094738;28;20365;-54
2022/04/21 10:22:07;;;;;;;;;;;;;;;;;;5095135;28;19912;-58
2022/04/21 10:24:34;;;;;;;;;;;;;;;;;;5094688;28;19916;-54
2022/04/21 10:27:01;;;;;;;;;;;;;;;;;;5094346;28;19977;-52
2022/04/21 10:29:27;;;;;;;;;;;;;;;;;;5094612;28;19970;-48
2022/04/21 10:31:59;;;;;;;;;;;;;;;;;;5095951;28;19908;-52
2022/04/21 10:34:26;;;;;;;;;;;;;;;;;;5115332;28;19994;-53
2022/04/21 10:36:52;;;;;;;;;;;;;;;;;;5115252;28;19908;-57
2022/04/21 10:39:19;;;;;;;;;;;;;;;;;;5114876;28;20350;-51
2022/04/21 10:41:45;;;;;;;;;;;;;;;;;;5115129;28;19908;-51
2022/04/21 10:44:11;;;;;;;;;;;;;;;;;;5115383;28;19916;-55
2022/04/21 10:46:38;;;;;;;;;;;;;;;;;;5115306;28;19908;-56
2022/04/21 10:49:04;;;;;;;;;;;;;;;;;;5114936;28;19908;-54
2022/04/21 10:51:31;;;;;;;;;;;;;;;;;;5112028;28;19957;-54
2022/04/21 10:59:26;;;;;;;;;;;;;;;;;;5094258;28;20013;-53
2022/04/21 11:01:54;;;;;;;;;;;;;;;;;;5094494;28;19930;-47
2022/04/21 11:04:20;;;;;;;;;;;;;;;;;;5110087;28;19926;-55
2022/04/21 11:06:47;;;;;;;;;;;;;;;;;;5114534;28;19959;-58
2022/04/21 11:09:13;;;;;;;;;;;;;;;;;;5114138;28;19908;-53
2022/04/21 11:11:40;;;;;;;;;;;;;;;;;;5114270;28;20011;-52
2022/04/21 11:14:06;;;;;;;;;;;;;;;;;;5112630;28;19916;-56
2022/04/21 11:16:32;;;;;;;;;;;;;;;;;;5113988;28;20342;-56
2022/04/21 11:18:59;;;;;;;;;;;;;;;;;;5114357;28;19903;-52
2022/04/21 11:21:26;;;;;;;;;;;;;;;;;;5113908;28;19912;-52
2022/04/21 11:23:53;;;;;;;;;;;;;;;;;;5114250;28;19922;-55
2022/04/21 11:26:19;;;;;;;;;;;;;;;;;;5114420;28;19960;-53
2022/04/21 11:28:46;;;;;;;;;;;;;;;;;;5113761;28;19907;-53
2022/04/21 11:31:12;;;;;;;;;;;;;;;;;;5113955;27;19907;-49
2022/04/21 11:33:39;;;;;;;;;;;;;;;;;;5114375;28;19943;-46
2022/04/21 11:36:05;;;;;;;;;;;;;;;;;;5112636;28;19907;-51
2022/04/21 11:38:32;;;;;;;;;;;;;;;;;;5113982;28;20374;-52
2022/04/21 11:41:01;;;;;;;;;;;;;;;;;;5113002;28;19907;-53
2022/04/21 11:43:28;;;;;;;;;;;;;;;;;;5113756;28;19912;-53
2022/04/21 11:45:54;;;;;;;;;;;;;;;;;;5113837;28;19915;-54
2022/04/21 11:48:21;;;;;;;;;;;;;;;;;;5103865;28;19908;-52
2022/04/21 11:50:49;;;;;;;;;;;;;;;;;;5093087;28;19912;-56
2022/04/21 11:53:18;;;;;;;;;;;;;;;;;;5092579;28;19908;-55
2022/04/21 11:55:45;;;;;;;;;;;;;;;;;;5093391;28;19908;-49
2022/04/21 11:58:11;;;;;;;;;;;;;;;;;;5092869;28;19908;-52
2022/04/21 12:08:52;;;;;;;;;;;;;;;;;;5100849;28;20044;-51
2022/04/21 12:11:18;;;;;;;;;;;;;;;;;;5113146;28;20411;-54
2022/04/21 12:13:45;;;;;;;;;;;;;;;;;;5113374;28;19907;-51
2022/04/21 12:16:11;;;;;;;;;;;;;;;;;;5113346;28;19907;-55
2022/04/21 12:18:38;;;;;;;;;;;;;;;;;;5113224;28;19919;-54
2022/04/21 12:21:04;;;;;;;;;;;;;;;;;;5112833;28;20003;-56
2022/04/21 12:23:30;;;;;;;;;;;;;;;;;;5112987;28;19907;-57
2022/04/21 12:25:58;;;;;;;;;;;;;;;;;;5113983;28;20038;-55
2022/04/21 12:28:24;;;;;;;;;;;;;;;;;;5114214;28;20393;-57
2022/04/21 12:30:51;;;;;;;;;;;;;;;;;;5097008;28;19908;-55
2022/04/21 12:33:17;;;;;;;;;;;;;;;;;;5096752;28;19927;-51
2022/04/21 12:35:44;;;;;;;;;;;;;;;;;;5097058;28;19908;-54
2022/04/21 12:40:55;;;;;;;;;;;;;;;;;;5096792;28;19966;-55
2022/04/21 12:43:22;;;;;;;;;;;;;;;;;;5096680;28;19962;-51
2022/04/21 12:45:48;;;;;;;;;;;;;;;;;;5096982;28;20008;-48
2022/04/21 12:48:15;;;;;;;;;;;;;;;;;;5112494;28;19918;-58
2022/04/21 12:50:41;;;;;;;;;;;;;;;;;;5116929;28;19908;-53
2022/04/21 12:53:07;;;;;;;;;;;;;;;;;;5103797;28;19920;-51
2022/04/21 12:55:34;;;;;;;;;;;;;;;;;;5097037;28;19954;-51
2022/04/21 12:58:00;;;;;;;;;;;;;;;;;;5096508;28;20355;-52
2022/04/21 13:00:27;;;;;;;;;;;;;;;;;;5096664;28;20020;-55
2022/04/21 13:02:53;;;;;;;;;;;;;;;;;;5096531;28;19934;-54
2022/04/21 13:05:20;;;;;;;;;;;;;;;;;;5096149;28;19920;-54
2022/04/21 13:07:46;;;;;;;;;;;;;;;;;;5096768;28;20081;-53
2022/04/21 13:10:13;;;;;;;;;;;;;;;;;;5096135;28;19912;-53
2022/04/21 13:12:39;;;;;;;;;;;;;;;;;;5096191;28;19939;-48
2022/04/21 13:15:06;;;;;;;;;;;;;;;;;;5096010;28;19908;-56
2022/04/21 13:17:32;;;;;;;;;;;;;;;;;;5106250;28;19915;-47
2022/04/21 13:19:59;;;;;;;;;;;;;;;;;;5116347;28;19907;-55
2022/04/21 13:22:25;;;;;;;;;;;;;;;;;;5116517;28;19908;-49
2022/04/21 13:24:52;;;;;;;;;;;;;;;;;;5116745;28;19959;-50
2022/04/21 13:27:21;;;;;;;;;;;;;;;;;;5116487;28;19915;-48
2022/04/21 13:29:48;;;;;;;;;;;;;;;;;;5116388;28;19919;-50
2022/04/21 13:34:59;;;;;;;;;;;;;;;;;;5116684;28;19952;-52
2022/04/21 13:37:25;;;;;;;;;;;;;;;;;;5115628;28;19907;-56
2022/04/21 13:39:52;;;;;;;;;;;;;;;;;;5115960;28;19938;-56
2022/04/21 13:42:18;;;;;;;;;;;;;;;;;;5116064;28;19918;-56
2022/04/21 13:44:45;;;;;;;;;;;;;;;;;;5116392;28;19919;-53
2022/04/21 13:47:11;;;;;;;;;;;;;;;;;;5116050;28;19908;-51
2022/04/21 13:49:38;;;;;;;;;;;;;;;;;;5116335;28;19944;-54
2022/04/21 13:52:04;;;;;;;;;;;;;;;;;;5115926;28;19907;-52
2022/04/21 13:54:31;;;;;;;;;;;;;;;;;;5115859;28;19908;-49
2022/04/21 13:56:57;;;;;;;;;;;;;;;;;;5114453;28;19918;-52
2022/04/21 13:59:24;;;;;;;;;;;;;;;;;;5114316;28;19908;-52
2022/04/21 14:01:50;;;;;;;;;;;;;;;;;;5115364;28;19950;-46
2022/04/21 14:04:16;;;;;;;;;;;;;;;;;;5115720;28;20281;-54
2022/04/21 14:06:43;;;;;;;;;;;;;;;;;;5116011;28;19954;-51
2022/04/21 14:09:10;;;;;;;;;;;;;;;;;;5115645;28;19908;-49
2022/04/21 14:11:38;;;;;;;;;;;;;;;;;;5114616;28;19908;-52
2022/04/21 14:14:05;;;;;;;;;;;;;;;;;;5115918;28;19915;-50
2022/04/21 14:16:32;;;;;;;;;;;;;;;;;;5114737;28;20033;-49
2022/04/21 14:27:13;;;;;;;;;;;;;;;;;;5114298;28;19914;-47
2022/04/21 14:29:40;;;;;;;;;;;;;;;;;;5115196;28;19933;-47
2022/04/21 14:32:09;;;;;;;;;;;;;;;;;;5115068;28;19968;-47
2022/04/21 14:34:36;;;;;;;;;;;;;;;;;;5114727;28;19907;-54
2022/04/21 14:37:03;;;;;;;;;;;;;;;;;;5114988;28;19953;-47
2022/04/21 14:44:58;;;;;;;;;;;;;;;;;;5114942;28;20455;-47
2022/04/21 14:47:25;;;;;;;;;;;;;;;;;;5114479;28;19922;-50
2022/04/21 14:49:51;;;;;;;;;;;;;;;;;;5114672;28;19911;-51
2022/04/21 14:52:20;;;;;;;;;;;;;;;;;;5115062;28;19912;-46
2022/04/21 14:54:47;;;;;;;;;;;;;;;;;;5114529;28;19907;-51
2022/04/21 14:57:13;;;;;;;;;;;;;;;;;;5114152;28;19908;-55
2022/04/21 14:59:39;;;;;;;;;;;;;;;;;;5114982;28;20334;-52
2022/04/21 15:02:09;;;;;;;;;;;;;;;;;;5114884;28;19953;-48
2022/04/21 15:04:35;;;;;;;;;;;;;;;;;;5114192;28;19967;-53
2022/04/21 15:07:02;;;;;;;;;;;;;;;;;;5114564;28;20324;-53
2022/04/21 15:09:28;;;;;;;;;;;;;;;;;;5114281;28;20381;-47
2022/04/21 15:11:54;;;;;;;;;;;;;;;;;;5114313;28;19969;-55
2022/04/21 15:14:21;;;;;;;;;;;;;;;;;;5114154;28;19908;-53
2022/04/21 15:16:47;;;;;;;;;;;;;;;;;;5114409;28;19912;-50
2022/04/21 15:19:14;;;;;;;;;;;;;;;;;;5114110;28;19947;-56
2022/04/21 15:21:40;;;;;;;;;;;;;;;;;;5114823;28;19914;-54
2022/04/21 15:24:07;;;;;;;;;;;;;;;;;;5114441;28;19930;-54
2022/04/21 15:26:33;;;;;;;;;;;;;;;;;;5113928;28;19908;-53
2022/04/21 15:29:00;;;;;;;;;;;;;;;;;;5114175;28;19908;-54
2022/04/21 15:31:27;;;;;;;;;;;;;;;;;;5113948;28;19935;-53
2022/04/21 15:33:53;;;;;;;;;;;;;;;;;;5113773;28;19908;-52
2022/04/21 15:36:20;;;;;;;;;;;;;;;;;;5114105;28;19955;-57
2022/04/21 15:38:49;;;;;;;;;;;;;;;;;;5114052;27;19954;-56
2022/04/21 15:41:16;;;;;;;;;;;;;;;;;;5113265;28;20250;-52
2022/04/21 15:43:42;;;;;;;;;;;;;;;;;;5112591;28;20007;-51
2022/04/21 15:46:09;;;;;;;;;;;;;;;;;;5113222;28;19959;-50
2022/04/21 15:48:35;;;;;;;;;;;;;;;;;;5097695;28;19915;-48
2022/04/21 15:51:02;;;;;;;;;;;;;;;;;;5093528;28;19920;-52
2022/04/21 15:58:57;;;;;;;;;;;;;;;;;;5093601;28;19954;-50
2022/04/21 16:01:24;;;;;;;;;;;;;;;;;;5092593;28;19919;-54
2022/04/21 16:03:50;;;;;;;;;;;;;;;;;;5092856;28;19916;-49
2022/04/21 16:06:19;;;;;;;;;;;;;;;;;;5094178;28;20262;-51
2022/04/21 16:08:46;;;;;;;;;;;;;;;;;;5113736;28;19915;-47
2022/04/21 16:11:12;;;;;;;;;;;;;;;;;;5113492;28;19915;-51
2022/04/21 16:13:39;;;;;;;;;;;;;;;;;;5113370;28;19919;-56
2022/04/21 16:16:05;;;;;;;;;;;;;;;;;;5113426;28;20377;-48
2022/04/21 16:18:32;;;;;;;;;;;;;;;;;;5113289;28;19908;-55
2022/04/21 16:20:59;;;;;;;;;;;;;;;;;;5113459;28;19965;-51
2022/04/21 16:23:25;;;;;;;;;;;;;;;;;;5113415;28;19915;-53
2022/04/21 16:25:52;;;;;;;;;;;;;;;;;;5113555;28;19966;-51
2022/04/21 16:28:18;;;;;;;;;;;;;;;;;;5113465;28;19912;-56
2022/04/21 16:30:45;;;;;;;;;;;;;;;;;;5113522;28;19990;-46
2022/04/21 16:33:12;;;;;;;;;;;;;;;;;;5112860;28;19911;-51
2022/04/21 16:35:38;;;;;;;;;;;;;;;;;;5113529;28;19912;-47
2022/04/21 16:38:04;;;;;;;;;;;;;;;;;;5113217;28;19908;-52
2022/04/21 16:40:31;;;;;;;;;;;;;;;;;;5113367;28;20437;-51
2022/04/21 16:42:59;;;;;;;;;;;;;;;;;;5113419;28;20010;-47
2022/04/21 16:45:26;;;;;;;;;;;;;;;;;;5112903;28;19916;-50
2022/04/21 16:47:52;;;;;;;;;;;;;;;;;;5112815;28;19999;-51
2022/04/21 16:50:18;;;;;;;;;;;;;;;;;;5113252;28;19908;-53
2022/04/21 16:52:45;;;;;;;;;;;;;;;;;;5113252;28;20350;-48
2022/04/21 16:55:11;;;;;;;;;;;;;;;;;;5113036;28;20002;-48
2022/04/21 16:57:38;;;;;;;;;;;;;;;;;;5113184;28;19911;-48
2022/04/21 17:00:04;;;;;;;;;;;;;;;;;;5113086;28;20385;-55
2022/04/21 17:05:15;;;;;;;;;;;;;;;;;;5112898;28;20393;-51
2022/04/21 17:07:49;;;;;;;;;;;;;;;;;;5112965;28;19907;-48
2022/04/21 17:10:15;;;;;;;;;;;;;;;;;;5113279;28;20242;-49
2022/04/21 17:12:42;;;;;;;;;;;;;;;;;;5113734;28;20255;-51
2022/04/21 17:15:08;;;;;;;;;;;;;;;;;;5116793;28;19911;-51
2022/04/21 17:17:34;;;;;;;;;;;;;;;;;;5117219;28;19904;-48
2022/04/21 17:20:01;;;;;;;;;;;;;;;;;;5116461;28;20002;-56
2022/04/21 17:22:27;;;;;;;;;;;;;;;;;;5117047;28;19965;-52
2022/04/21 17:24:54;;;;;;;;;;;;;;;;;;5116260;28;20309;-52
2022/04/21 17:27:20;;;;;;;;;;;;;;;;;;5116550;28;19994;-45
2022/04/21 17:29:47;;;;;;;;;;;;;;;;;;5116438;28;19960;-47
2022/04/21 17:32:13;;;;;;;;;;;;;;;;;;5116114;28;20266;-49
2022/04/21 17:34:40;;;;;;;;;;;;;;;;;;5116655;28;20327;-49
2022/04/21 17:37:06;;;;;;;;;;;;;;;;;;5110736;28;19915;-49
2022/04/21 17:39:33;;;;;;;;;;;;;;;;;;5096235;28;19919;-54
2022/04/21 17:41:59;;;;;;;;;;;;;;;;;;5095906;28;19934;-51
2022/04/21 17:44:26;;;;;;;;;;;;;;;;;;5096047;28;19930;-50
2022/04/21 17:46:52;;;;;;;;;;;;;;;;;;5100535;28;19922;-50
2022/04/21 17:49:19;;;;;;;;;;;;;;;;;;5116074;28;19927;-49
2022/04/21 17:51:45;;;;;;;;;;;;;;;;;;5115945;28;19916;-48
2022/04/21 17:54:12;;;;;;;;;;;;;;;;;;5116091;27;20393;-52
2022/04/21 17:56:38;;;;;;;;;;;;;;;;;;5115922;28;20423;-50
2022/04/21 17:59:04;;;;;;;;;;;;;;;;;;5115845;28;20327;-51
2022/04/21 18:01:31;;;;;;;;;;;;;;;;;;5115810;28;20320;-55
2022/04/21 18:03:57;;;;;;;;;;;;;;;;;;5115588;28;20358;-52
2022/04/21 18:06:24;;;;;;;;;;;;;;;;;;5115874;28;20385;-55